Time;durP1;ratioP1;P1;durP2;ratioP2;P2;SDS_P1;SDS_P2;PMS_P1;PMS_P2;Temp;Humidity;BMP_temperature;BMP_pressure;BME280_temperature;BME280_humidity;BME280_pressure;Samples;Min_cycle;Max_cycle;Signal;HPM_P1;HPM_P2
2023/08/20 00:02:02;;;;;;;;;31.67;29.67;;;;;21.81;100.00;99931.91;6285382;20;3590888;-53
2023/08/20 00:04:37;;;;;;;;;33.75;31.75;;;;;21.85;100.00;99935.19;6281915;20;3604443;-51
2023/08/20 00:07:07;;;;;;;;;29.67;28.67;;;;;21.79;100.00;99933.09;6312058;20;3608648;-49
2023/08/20 00:09:36;;;;;;;;;31.67;29.00;;;;;21.48;100.00;99934.44;6282892;20;3591994;-49
2023/08/20 00:12:05;;;;;;;;;29.00;29.00;;;;;21.62;100.00;99935.72;6283721;20;3591933;-52
2023/08/20 00:15:06;;;;;;;;;31.67;30.33;;;;;21.89;100.00;99931.13;6281385;20;3602503;-52
2023/08/20 00:17:39;;;;;;;;;32.50;30.75;;;;;21.52;100.00;99929.50;6281816;20;3602397;-52
2023/08/20 00:20:12;;;;;;;;;36.00;31.50;;;;;21.34;100.00;99928.63;6314993;20;3606519;-52
2023/08/20 00:22:45;;;;;;;;;36.33;33.33;;;;;21.50;100.00;99930.66;6310835;20;3602442;-50
2023/08/20 00:25:17;;;;;;;;;32.00;29.33;;;;;21.56;100.00;99932.75;6283143;20;3591996;-52
2023/08/20 00:27:46;;;;;;;;;32.67;30.33;;;;;21.56;100.00;99936.34;6284672;20;3598177;-53
2023/08/20 00:30:15;;;;;;;;;40.00;31.50;;;;;21.45;100.00;99931.13;6283672;20;4367970;-54
2023/08/20 00:32:44;;;;;;;;;36.33;32.00;;;;;21.53;100.00;99923.00;6310999;20;1902374;-52
2023/08/20 00:35:14;;;;;;;;;34.67;30.00;;;;;21.27;100.00;99926.53;6313217;20;3602444;-49
2023/08/20 00:37:44;;;;;;;;;31.00;29.00;;;;;21.35;100.00;99927.59;6280650;20;3583706;-52
2023/08/20 00:40:14;;;;;;;;;31.67;30.67;;;;;21.37;100.00;99928.31;6282602;20;3592090;-52
2023/08/20 00:42:42;;;;;;;;;33.67;31.00;;;;;21.48;100.00;99928.09;6284295;20;3589869;-52
2023/08/20 00:45:12;;;;;;;;;31.00;29.00;;;;;21.38;100.00;99922.72;6280881;20;3571089;-52
2023/08/20 00:47:41;;;;;;;;;30.00;29.00;;;;;21.46;100.00;99930.13;6315398;20;3591911;-52
2023/08/20 00:50:10;;;;;;;;;33.00;31.00;;;;;21.15;100.00;99933.25;6283103;20;3596097;-50
2023/08/20 00:52:39;;;;;;;;;33.33;30.33;;;;;21.08;100.00;99932.16;6282194;20;3578503;-49
2023/08/20 00:55:12;;;;;;;;;32.00;28.67;;;;;21.36;100.00;99941.13;6280178;20;3602851;-52
2023/08/20 00:57:42;;;;;;;;;27.33;26.33;;;;;21.22;100.00;99939.81;6279834;20;3595063;-49
2023/08/20 01:00:11;;;;;;;;;33.00;29.67;;;;;21.22;100.00;99938.91;6283534;20;3598173;-53
2023/08/20 01:02:41;;;;;;;;;31.33;29.00;;;;;21.25;100.00;99931.28;6282772;20;3579383;-53
2023/08/20 01:05:13;;;;;;;;;32.00;29.67;;;;;21.14;100.00;99950.63;6284357;20;3580496;-49
2023/08/20 01:08:08;;;;;;;;;34.33;30.33;;;;;21.17;100.00;99947.59;6278045;20;3596099;-50
2023/08/20 01:11:18;;;;;;;;;29.67;28.33;;;;;21.19;100.00;99945.56;6279065;20;3583621;-51
2023/08/20 01:13:46;;;;;;;;;32.33;29.67;;;;;21.05;100.00;99935.19;6279039;20;3584025;-51
2023/08/20 01:16:15;;;;;;;;;32.67;30.00;;;;;21.18;100.00;99935.66;6283477;20;3585691;-49
2023/08/20 01:18:47;;;;;;;;;32.50;31.00;;;;;21.04;100.00;99936.22;6278847;20;3597941;-50
2023/08/20 01:21:38;;;;;;;;;29.33;29.00;;;;;20.95;100.00;99937.13;6309111;20;3586912;-52
2023/08/20 01:25:09;;;;;;;;;30.33;29.00;;;;;20.91;100.00;99936.59;6309357;20;3583632;-52
2023/08/20 01:28:29;;;;;;;;;29.33;28.33;;;;;20.88;100.00;99930.56;6279763;20;3588802;-52
2023/08/20 01:31:01;;;;;;;;;33.67;29.67;;;;;20.90;100.00;99929.41;6282461;20;3593999;-53
2023/08/20 01:33:30;;;;;;;;;31.67;30.67;;;;;20.68;100.00;99930.72;6282816;20;3582688;-54
2023/08/20 01:35:59;;;;;;;;;28.67;28.67;;;;;20.81;100.00;99931.19;6281724;20;3580474;-49
2023/08/20 01:38:28;;;;;;;;;29.67;28.67;;;;;20.77;100.00;99935.28;6280696;20;3579540;-52
2023/08/20 01:40:57;;;;;;;;;28.33;27.00;;;;;20.77;100.00;99937.13;6283790;20;3579480;-49
2023/08/20 01:43:26;;;;;;;;;33.00;31.00;;;;;20.75;100.00;99931.81;6280003;20;3598681;-52
2023/08/20 01:45:54;;;;;;;;;30.33;27.67;;;;;20.95;100.00;99931.69;6283111;20;3594112;-52
2023/08/20 01:48:24;;;;;;;;;30.33;29.00;;;;;20.98;100.00;99928.63;6280911;20;3586736;-51
2023/08/20 01:50:52;;;;;;;;;30.67;28.00;;;;;20.77;100.00;99924.34;6284944;20;3590895;-54
2023/08/20 01:53:21;;;;;;;;;29.67;29.00;;;;;20.85;100.00;99926.28;6281504;20;3585051;-51
2023/08/20 01:55:50;;;;;;;;;34.00;30.00;;;;;20.81;100.00;99920.28;6281282;20;3591888;-50
2023/08/20 01:58:19;;;;;;;;;29.33;29.00;;;;;20.86;100.00;99927.16;6280784;20;3585700;-53
2023/08/20 02:00:47;;;;;;;;;32.67;31.00;;;;;20.72;100.00;99915.78;6283408;20;3561722;-49
2023/08/20 02:03:17;;;;;;;;;29.00;28.25;;;;;20.68;100.00;99917.06;6278115;20;3604616;-50
2023/08/20 02:05:45;;;;;;;;;31.33;28.00;;;;;20.64;100.00;99918.38;6309852;20;3583644;-53
2023/08/20 02:08:15;;;;;;;;;27.67;25.00;;;;;20.77;100.00;99916.16;6275804;20;3599239;-53
2023/08/20 02:10:44;;;;;;;;;28.67;27.33;;;;;20.42;100.00;99913.34;6306834;20;3588900;-49
2023/08/20 02:13:12;;;;;;;;;32.33;29.67;;;;;20.34;100.00;99914.94;6282344;20;3581551;-54
2023/08/20 02:15:41;;;;;;;;;33.67;31.00;;;;;20.46;100.00;99915.59;6277291;20;3594019;-53
2023/08/20 02:18:10;;;;;;;;;32.33;29.00;;;;;20.44;100.00;99917.63;6277704;20;3576793;-51
2023/08/20 02:20:39;;;;;;;;;31.00;29.00;;;;;20.29;100.00;99919.13;6279875;20;3588799;-53
2023/08/20 02:23:07;;;;;;;;;29.00;29.00;;;;;20.38;100.00;99908.19;6282124;20;3588831;-52
2023/08/20 02:25:36;;;;;;;;;31.67;30.00;;;;;20.14;100.00;99921.50;6278407;20;3592961;-53
2023/08/20 02:28:05;;;;;;;;;33.67;30.00;;;;;20.11;100.00;99922.66;6277942;20;3583656;-52
2023/08/20 02:30:46;;;;;;;;;32.33;29.33;;;;;20.37;100.00;99911.91;6281803;20;3586733;-50
2023/08/20 02:33:15;;;;;;;;;31.00;29.00;;;;;20.51;100.00;99917.84;6310469;20;3585685;-50
2023/08/20 02:35:43;;;;;;;;;30.67;28.67;;;;;20.51;100.00;99917.84;6279434;20;3591946;-49
2023/08/20 02:38:12;;;;;;;;;30.00;29.67;;;;;20.59;100.00;99916.13;6279023;20;3581549;-52
2023/08/20 02:40:42;;;;;;;;;31.33;30.33;;;;;20.52;100.00;99915.00;6277033;20;3583636;-52
2023/08/20 02:43:12;;;;;;;;;30.50;28.75;;;;;20.57;100.00;99909.13;6275976;20;3604420;-52
2023/08/20 02:45:43;;;;;;;;;31.67;30.67;;;;;20.63;100.00;99911.22;6309118;20;3601328;-50
2023/08/20 02:48:14;;;;;;;;;36.00;30.50;;;;;20.59;100.00;99912.56;6310759;20;3588848;-51
2023/08/20 02:50:43;;;;;;;;;29.33;29.33;;;;;20.54;100.00;99913.00;6311275;20;3601431;-54
2023/08/20 02:53:12;;;;;;;;;31.33;28.33;;;;;20.63;100.00;99911.22;6279640;20;3584745;-53
2023/08/20 02:55:41;;;;;;;;;33.33;31.00;;;;;20.51;100.00;99902.38;6279375;20;3584594;-50
2023/08/20 02:58:12;;;;;;;;;34.57;29.43;;;;;20.58;100.00;99905.38;6301111;20;3614046;-50
2023/08/20 03:00:44;;;;;;;;;28.33;27.33;;;;;20.59;100.00;99907.09;6285019;20;3576406;-54
2023/08/20 03:03:13;;;;;;;;;28.67;28.67;;;;;20.53;100.00;99904.94;6284897;20;3578445;-53
2023/08/20 03:05:42;;;;;;;;;30.00;29.00;;;;;20.35;100.00;99904.88;6282820;20;2710994;-51
2023/08/20 03:08:11;;;;;;;;;31.33;29.67;;;;;20.24;100.00;99905.09;6317256;20;3594104;-53
2023/08/20 03:10:40;;;;;;;;;31.00;25.33;;;;;20.25;100.00;99910.41;6284690;20;3612728;-50
2023/08/20 03:13:09;;;;;;;;;20.67;19.33;;;;;20.32;100.00;99900.59;6287527;20;3571124;-54
2023/08/20 03:15:38;;;;;;;;;28.33;24.67;;;;;20.41;100.00;99912.47;6284133;20;3587803;-51
2023/08/20 03:18:07;;;;;;;;;28.00;27.67;;;;;20.50;100.00;99916.16;6282623;20;3606585;-52
2023/08/20 03:20:36;;;;;;;;;28.67;26.67;;;;;20.50;100.00;99917.00;6283465;20;3603255;-53
2023/08/20 03:23:05;;;;;;;;;26.50;26.50;;;;;20.45;100.00;99919.31;6283993;20;3606500;-51
2023/08/20 03:25:35;;;;;;;;;31.50;26.00;;;;;20.29;100.00;99914.53;6314826;20;3609693;-51
2023/08/20 03:28:04;;;;;;;;;30.33;29.33;;;;;20.14;100.00;99921.50;6314475;20;3598225;-53
2023/08/20 03:30:33;;;;;;;;;27.33;26.00;;;;;20.06;100.00;99927.69;6286727;20;3598197;-50
2023/08/20 03:33:04;;;;;;;;;25.75;24.00;;;;;19.94;100.00;99926.19;6283237;20;3602420;-53
2023/08/20 03:35:33;;;;;;;;;26.00;25.00;;;;;19.98;100.00;99924.84;6310642;20;3583580;-52
2023/08/20 03:38:02;;;;;;;;;28.33;25.00;;;;;20.10;100.00;99931.00;6313962;20;3603396;-48
2023/08/20 03:40:31;;;;;;;;;30.33;29.00;;;;;20.03;100.00;99935.31;6283081;20;3576300;-52
2023/08/20 03:43:00;;;;;;;;;29.00;29.00;;;;;19.89;100.00;99934.78;6286888;20;3586765;-49
2023/08/20 03:45:30;;;;;;;;;30.33;29.00;;;;;19.91;100.00;99927.34;6282482;20;3591051;-50
2023/08/20 03:47:59;;;;;;;;;32.33;29.00;;;;;20.20;100.00;99941.88;6314669;20;3587810;-51
2023/08/20 03:50:28;;;;;;;;;28.33;27.00;;;;;20.17;100.00;99943.03;6285526;20;3604476;-49
2023/08/20 03:52:57;;;;;;;;;30.67;28.67;;;;;20.08;100.00;99938.47;6284924;20;3594261;-51
2023/08/20 03:55:26;;;;;;;;;27.33;27.00;;;;;20.08;100.00;99943.91;6278194;20;3604420;-53
2023/08/20 03:57:55;;;;;;;;;27.67;26.00;;;;;19.97;100.00;99934.06;6284589;20;3606548;-52
2023/08/20 04:00:24;;;;;;;;;31.00;29.75;;;;;19.97;100.00;99936.78;6284154;20;3604506;-50
2023/08/20 04:02:54;;;;;;;;;34.33;29.33;;;;;20.17;100.00;99951.22;6313798;20;3604442;-48
2023/08/20 04:05:23;;;;;;;;;33.33;29.00;;;;;20.20;100.00;99948.19;6312553;20;3595059;-53
2023/08/20 04:07:52;;;;;;;;;28.33;28.00;;;;;20.27;100.00;99945.69;6280346;20;3591916;-51
2023/08/20 04:10:22;;;;;;;;;34.25;29.25;;;;;20.21;100.00;99951.75;6283002;20;3594042;-49
2023/08/20 04:12:51;;;;;;;;;27.25;26.75;;;;;19.80;100.00;99941.16;6317591;20;3600226;-49
2023/08/20 04:15:21;;;;;;;;;29.50;28.25;;;;;19.89;100.00;99951.16;6313586;20;3601437;-48
2023/08/20 04:17:51;;;;;;;;;29.00;26.33;;;;;19.90;100.00;99952.00;6311677;20;3599196;-51
2023/08/20 04:20:19;;;;;;;;;30.67;29.67;;;;;19.94;100.00;99954.28;6314070;20;3579546;-52
2023/08/20 04:22:48;;;;;;;;;31.67;29.00;;;;;20.04;100.00;99954.25;6282556;20;3586774;-54
2023/08/20 04:25:17;;;;;;;;;31.00;29.00;;;;;20.13;100.00;99957.94;6283561;20;3604486;-49
2023/08/20 04:27:46;;;;;;;;;31.00;29.67;;;;;20.06;100.00;99954.94;6279863;20;3590883;-50
2023/08/20 04:30:15;;;;;;;;;37.50;29.25;;;;;20.15;100.00;99956.78;6287111;20;3609713;-54
2023/08/20 04:32:45;;;;;;;;;42.25;35.00;;;;;20.39;100.00;99959.00;6314598;20;3612827;-49
2023/08/20 04:35:14;;;;;;;;;31.00;29.00;;;;;20.36;100.00;99964.75;6314137;20;3586719;-52
2023/08/20 04:37:43;;;;;;;;;30.25;27.75;;;;;20.48;100.00;99964.53;6283972;20;3604526;-54
2023/08/20 04:40:12;;;;;;;;;32.00;30.67;;;;;21.29;100.00;99966.47;6310297;20;3580708;-53
2023/08/20 04:42:43;;;;;;;;;29.00;25.67;;;;;20.85;100.00;99969.94;6285560;20;3599220;-51
2023/08/20 04:45:12;;;;;;;;;28.33;28.33;;;;;20.98;100.00;99962.25;6283425;20;3593166;-52
2023/08/20 04:47:41;;;;;;;;;30.33;27.33;;;;;21.59;100.00;99973.41;6277947;20;3601310;-48
2023/08/20 04:50:10;;;;;;;;;33.00;28.33;;;;;21.42;100.00;99961.50;6283543;20;3597190;-52
2023/08/20 04:52:39;;;;;;;;;25.00;24.67;;;;;22.04;100.00;99965.06;6282405;20;3594107;-52
2023/08/20 04:55:09;;;;;;;;;27.67;24.67;;;;;23.23;100.00;99978.72;6281853;20;3602466;-51
2023/08/20 04:57:37;;;;;;;;;24.67;24.33;;;;;22.83;100.00;99978.59;6280009;20;3592986;-53
2023/08/20 05:00:07;;;;;;;;;21.33;19.67;;;;;22.44;100.00;99974.53;6280911;20;3564975;-51
2023/08/20 05:02:36;;;;;;;;;21.33;21.33;;;;;22.23;100.00;99969.47;6282174;20;3583688;-51
2023/08/20 05:05:07;;;;;;;;;28.50;25.50;;;;;22.16;100.00;99976.56;6284044;20;3596131;-52
2023/08/20 05:07:36;;;;;;;;;26.33;24.00;;;;;22.07;100.00;99983.88;6310334;20;3603522;-50
2023/08/20 05:10:06;;;;;;;;;26.00;22.67;;;;;22.13;100.00;99983.22;6282299;20;3574428;-53
2023/08/20 05:12:36;;;;;;;;;24.00;20.33;;;;;22.00;100.00;99985.53;6279114;20;3573257;-50
2023/08/20 05:15:07;;;;;;;;;23.67;22.33;;;;;22.06;100.00;99976.66;6308473;20;3600263;-50
2023/08/20 05:17:36;;;;;;;;;24.00;20.00;;;;;22.80;100.00;99979.78;6275971;20;2648201;-51
2023/08/20 05:20:06;;;;;;;;;21.67;21.67;;;;;23.51;98.74;99983.88;6309535;20;3571054;-53
2023/08/20 05:22:36;;;;;;;;;22.67;22.00;;;;;23.65;98.12;99988.69;6308973;20;3583573;-55
2023/08/20 05:25:06;;;;;;;;;22.00;22.00;;;;;24.48;94.98;99997.69;6310331;20;3575408;-54
2023/08/20 05:27:38;;;;;;;;;23.43;22.14;;;;;23.95;95.83;99997.25;6328150;20;3579559;-51
2023/08/20 05:30:08;;;;;;;;;23.67;22.33;;;;;23.30;100.00;99992.63;6281019;20;3583593;-52
2023/08/20 05:32:37;;;;;;;;;16.33;16.00;;;;;23.39;100.00;99997.06;6281712;20;3557674;-53
2023/08/20 05:35:07;;;;;;;;;22.00;22.00;;;;;24.15;95.20;99997.75;6278348;20;3587890;-54
2023/08/20 05:37:35;;;;;;;;;22.33;22.33;;;;;23.71;96.35;99994.50;6278238;20;3585738;-52
2023/08/20 05:40:05;;;;;;;;;23.33;22.33;;;;;24.30;94.02;100004.25;6279748;20;3588905;-53
2023/08/20 05:42:34;;;;;;;;;24.67;23.33;;;;;24.23;93.08;100003.22;6281541;20;3592969;-52
2023/08/20 05:45:04;;;;;;;;;23.00;21.00;;;;;23.92;97.82;100008.56;6276322;20;3579493;-53
2023/08/20 05:47:34;;;;;;;;;23.00;21.25;;;;;25.55;89.99;100018.06;6276351;20;3591944;-55
2023/08/20 05:50:04;;;;;;;;;22.33;19.67;;;;;25.63;87.67;100019.91;6309228;20;3576314;-54
2023/08/20 05:52:33;;;;;;;;;22.33;21.33;;;;;25.18;89.39;100019.69;6310416;20;3574221;-54
2023/08/20 05:55:03;;;;;;;;;23.00;21.67;;;;;25.83;88.88;100025.78;6280131;20;3582646;-55
2023/08/20 05:57:31;;;;;;;;;23.33;21.33;;;;;25.72;88.38;100023.44;6277573;20;3587757;-52
2023/08/20 06:00:00;;;;;;;;;22.00;20.67;;;;;26.27;86.79;100022.25;6279514;20;3566087;-55
2023/08/20 06:02:29;;;;;;;;;21.00;19.33;;;;;25.88;88.36;100026.06;6280819;20;3569286;-54
2023/08/20 06:04:58;;;;;;;;;21.33;20.00;;;;;25.19;89.19;100026.91;6280771;20;3559647;-53
2023/08/20 06:07:27;;;;;;;;;22.00;22.00;;;;;25.72;88.83;100028.94;6279714;20;3573179;-50
2023/08/20 06:09:56;;;;;;;;;18.33;18.33;;;;;26.45;84.96;100039.28;6283523;20;3563765;-53
2023/08/20 06:12:25;;;;;;;;;19.00;17.33;;;;;25.76;86.84;100039.41;6277926;20;3566905;-53
2023/08/20 06:14:54;;;;;;;;;22.25;21.00;;;;;25.33;89.61;100029.91;6282274;20;3583590;-53
2023/08/20 06:17:23;;;;;;;;;21.67;19.00;;;;;25.07;90.26;100033.81;6311145;20;3555671;-53
2023/08/20 06:19:52;;;;;;;;;19.33;18.00;;;;;25.19;89.99;100029.66;6278243;20;3574221;-54
2023/08/20 06:22:21;;;;;;;;;19.67;19.33;;;;;25.26;88.07;100034.44;6279412;20;3585798;-54
2023/08/20 06:24:51;;;;;;;;;17.67;16.33;;;;;25.70;88.56;100031.00;6278334;20;2836832;-52
2023/08/20 06:27:20;;;;;;;;;15.67;14.33;;;;;25.84;87.50;100033.00;6312158;20;3548242;-53
2023/08/20 06:29:49;;;;;;;;;16.33;16.33;;;;;25.78;86.92;100033.72;6281291;20;3566032;-56
2023/08/20 06:32:18;;;;;;;;;21.67;20.33;;;;;25.65;87.75;100036.25;6283944;20;3580468;-52
2023/08/20 06:34:47;;;;;;;;;15.67;15.67;;;;;25.95;86.86;100029.81;6288995;20;3551306;-52
2023/08/20 06:37:15;;;;;;;;;18.00;18.00;;;;;26.64;84.79;100029.63;6285402;20;3564858;-52
2023/08/20 06:39:44;;;;;;;;;19.00;19.00;;;;;26.94;83.01;100040.63;6288212;20;3577418;-54
2023/08/20 06:42:13;;;;;;;;;18.00;16.67;;;;;28.06;80.79;100047.59;6288227;20;3569075;-54
2023/08/20 06:44:42;;;;;;;;;21.67;19.00;;;;;27.15;82.24;100048.97;6286581;20;3569011;-53
2023/08/20 06:47:11;;;;;;;;;18.00;17.33;;;;;27.88;80.64;100048.09;6285307;20;3559787;-54
2023/08/20 06:49:40;;;;;;;;;21.00;17.00;;;;;32.17;63.45;100057.16;6287815;20;3569068;-54
2023/08/20 06:52:09;;;;;;;;;16.67;16.67;;;;;34.25;53.59;100071.13;6284947;20;3560880;-61
2023/08/20 06:54:38;;;;;;;;;17.33;16.00;;;;;35.74;49.39;100078.09;6284935;20;3560722;-61
2023/08/20 06:57:07;;;;;;;;;17.00;16.00;;;;;35.69;51.33;100076.03;6316327;20;3564929;-61
2023/08/20 06:59:36;;;;;;;;;17.67;17.67;;;;;35.52;49.92;100081.56;6289485;20;3570074;-61
2023/08/20 07:02:04;;;;;;;;;14.67;14.67;;;;;34.87;50.21;100085.47;6290233;20;3538790;-62
2023/08/20 07:04:34;;;;;;;;;15.67;15.67;;;;;35.63;49.34;100087.34;6285006;20;2825396;-62
2023/08/20 07:07:06;;;;;;;;;20.33;16.67;;;;;36.40;46.72;100087.66;6320356;20;3565010;-61
2023/08/20 07:09:35;;;;;;;;;16.67;16.67;;;;;36.20;47.66;100093.75;6286795;20;3571226;-62
2023/08/20 07:12:04;;;;;;;;;15.00;14.50;;;;;36.77;45.18;100095.53;6286019;20;2816952;-61
